Airfield :
LOGIN :

Register | Disclaimer

   EN    FR    IT 

 










Legend :    VFR   Marginal VFR   IFR   Intensive IFR   Very Intensive IFR
Visi :
Ceiling :
>= 8 km
>= 3000ft
5 to 8 km
1000 to 3000 ft
1500m to 5 km
500 to 1000 ft
800 to 1500m
200 to 500 ft
< 800m
< 200 ft
Symbols :   Thunderstorms  Fog  Heavy snow  Heavy precipitations  Wind > 20 kt
SIGMETs :     Misc.  Thunderstorms  Icing  Turbulence  Mountain Waves  Volcanic Ashes







- Airport Elevation : 194 ft
- IATA code : LME
- Download approach charts


LFRM - Le Mans

CURRENT METAR :
  • 111730Z AUTO VRB02KT 3100 BR VV/// 05/05 Q1024 TEMPO 0500 FG

EXPIRED METARs :
  • 111700Z AUTO VRB02KT 0800 0750 FG VV/// 05/05 Q1024 TEMPO 0500 FG
  • 111630Z AUTO VRB02KT 0650 FG VV/// 05/05 Q1024 TEMPO 0500 FG
  • 111600Z AUTO VRB02KT 0600 FG VV/// 05/05 Q1024 NOSIG
  • 111530Z AUTO VRB03KT 0500 FG VV/// 05/05 Q1024 BECMG 4000 BR BKN002
  • 111500Z AUTO 00000KT 3400 BR OVC002 05/05 Q1024 TEMPO 8000

TAF AMD TAF LFRM
Valid from the 11 at 15:00 until the 12 at 12:00 UTC


111540Z 1115/1212 14005KT 3000 BR BKN002
TEMPO 1115/1206 0500 FG VV///
BECMG 1210/1212 9999 NSW SCT020
No reported NOTAMs for that airfield.



MET'MAP, your aeronautical weather chart ! - Copyright ORBIFLY December 2007 - Disclaimer

ORBIFLY MET'MAP TEAM :

Programming & Development : Alexandra Zaïnal
Concept & Development : Baudouin d'Aumeries
Co-Development & Prog : Marc-Olivier Méhu
Technical & hardware support : Manuel Goepfert

Contact : metmap@orbifly.com




SOURCES & CREDITS :

   NOAA